createdAt,value
2019-01-05T00:00:41.034Z,79.40
2019-01-05T00:22:40.359Z,79.40
2019-01-05T00:26:18.801Z,79.40
2019-01-05T00:28:52.566Z,79.50
2019-01-05T00:31:25.214Z,79.60
2019-01-05T00:34:05.181Z,79.60
2019-01-05T00:44:09.897Z,78.80
2019-01-05T00:46:44.586Z,79.40
2019-01-05T00:52:05.670Z,78.90
2019-01-05T00:58:24.044Z,79.60
2019-01-05T01:00:57.449Z,79.60
2019-01-05T01:06:20.486Z,79.20
2019-01-05T01:11:53.699Z,79.10
2019-01-05T01:17:27.868Z,80.80
2019-01-05T01:20:18.681Z,80.00
2019-01-05T01:22:58.172Z,79.90
2019-01-05T01:25:34.654Z,79.70
2019-01-05T01:28:09.193Z,79.70
2019-01-05T01:30:45.864Z,79.70
2019-01-05T01:33:19.625Z,80.00
2019-01-05T01:35:58.005Z,79.90
2019-01-05T01:45:13.589Z,80.00
2019-01-05T01:50:32.073Z,79.60
2019-01-05T01:53:05.129Z,80.30
2019-01-05T01:55:55.874Z,80.10
2019-01-05T01:58:29.344Z,80.00
2019-01-05T02:01:04.999Z,80.00
2019-01-05T02:04:37.351Z,80.10
2019-01-05T02:07:09.993Z,80.30
2019-01-05T02:09:43.629Z,80.90
2019-01-05T02:12:19.241Z,80.40
2019-01-05T02:15:08.320Z,80.40
2019-01-05T02:17:48.566Z,80.50
2019-01-05T02:23:25.649Z,79.60
2019-01-05T02:36:40.437Z,79.70
2019-01-05T02:41:29.518Z,81.40
2019-01-05T02:44:15.895Z,80.50
2019-01-05T02:51:02.105Z,80.70
2019-01-05T02:56:46.105Z,80.50
2019-01-05T03:00:34.430Z,80.80
2019-01-05T03:03:37.567Z,81.40
2019-01-05T03:09:16.829Z,80.20
2019-01-05T03:12:10.334Z,81.40
2019-01-05T03:15:27.655Z,81.50
2019-01-05T03:28:39.369Z,80.70
2019-01-05T03:32:55.036Z,81.50
2019-01-05T03:36:46.856Z,81.90
2019-01-05T03:51:43.571Z,81.80
2019-01-05T03:58:18.661Z,80.90
2019-01-05T04:01:27.001Z,81.80
2019-01-05T04:06:19.413Z,81.90
2019-01-05T04:11:54.903Z,81.40
2019-01-05T04:14:46.364Z,82.60
2019-01-05T04:17:37.444Z,82.30
2019-01-05T04:20:22.445Z,82.00
2019-01-05T04:25:31.261Z,81.70
2019-01-05T04:29:42.701Z,82.00
2019-01-05T04:32:30.216Z,82.40
2019-01-05T04:35:20.636Z,81.60
2019-01-05T04:38:37.028Z,82.00
2019-01-05T04:45:11.438Z,81.00
2019-01-05T04:49:59.896Z,81.50
2019-01-05T04:53:42.499Z,81.40
2019-01-05T04:59:40.461Z,81.60
2019-01-05T05:02:56.721Z,81.60
2019-01-05T05:05:46.334Z,81.50
2019-01-05T05:10:43.042Z,81.50
2019-01-05T05:13:35.091Z,81.50
2019-01-05T05:21:48.106Z,81.20
2019-01-05T05:27:26.711Z,80.60
2019-01-05T05:30:47.640Z,81.40
2019-01-05T05:35:34.551Z,81.50
2019-01-05T05:38:22.549Z,81.60
2019-01-05T05:46:07.485Z,81.00
2019-01-05T05:48:51.866Z,81.70
2019-01-05T05:54:47.577Z,81.50
2019-01-05T06:01:14.050Z,81.60
2019-01-05T06:04:12.446Z,81.40
2019-01-05T06:07:00.038Z,81.10
2019-01-05T06:09:49.911Z,81.20
2019-01-05T06:12:33.869Z,81.20
2019-01-05T06:15:35.419Z,81.20
2019-01-05T06:20:37.508Z,81.00
2019-01-05T06:23:44.185Z,81.00
2019-01-05T06:29:11.609Z,81.10
2019-01-05T06:32:15.808Z,81.10
2019-01-05T06:36:08.954Z,81.00
2019-01-05T06:39:09.568Z,81.20
2019-01-05T06:41:59.507Z,81.10
2019-01-05T06:44:54.980Z,80.80
2019-01-05T06:53:55.550Z,80.30
2019-01-05T06:57:11.386Z,81.20
2019-01-05T07:02:00.076Z,80.90
2019-01-05T07:05:46.409Z,80.90
2019-01-05T07:08:34.127Z,80.90
2019-01-05T07:16:52.670Z,80.10
2019-01-05T07:21:44.936Z,80.70
2019-01-05T07:24:33.734Z,80.40
2019-01-05T07:27:18.916Z,80.90
2019-01-05T07:35:36.505Z,79.90
2019-01-05T07:46:15.398Z,79.70
2019-01-05T08:00:57.551Z,79.90
2019-01-05T08:10:14.437Z,79.50
2019-01-05T08:12:59.478Z,80.30
2019-01-05T08:17:48.706Z,80.20
2019-01-05T08:20:35.489Z,80.20
2019-01-05T08:24:24.293Z,80.40
2019-01-05T08:30:10.526Z,79.60
2019-01-05T08:36:23.630Z,79.40
2019-01-05T08:40:19.523Z,80.20
2019-01-05T08:46:19.829Z,79.30
2019-01-05T08:52:16.618Z,79.40
2019-01-05T08:59:14.386Z,81.00
2019-01-05T09:04:35.094Z,81.00
2019-01-05T09:08:23.553Z,82.30
2019-01-05T09:11:12.377Z,80.90
2019-01-05T09:14:57.997Z,80.50
2019-01-05T09:18:01.474Z,80.40
2019-01-05T09:21:18.345Z,80.40
2019-01-05T09:25:12.617Z,80.20
2019-01-05T09:28:28.373Z,80.30
2019-01-05T09:31:18.025Z,80.20
2019-01-05T09:34:03.363Z,80.40
2019-01-05T09:37:12.982Z,80.30
2019-01-05T09:40:05.803Z,80.20
2019-01-05T09:45:06.707Z,80.20
2019-01-05T09:48:16.779Z,80.30
2019-01-05T09:54:13.890Z,80.00
2019-01-05T09:56:59.457Z,80.10
2019-01-05T10:02:06.378Z,79.90
2019-01-05T10:04:50.396Z,80.00
2019-01-05T10:09:04.734Z,80.00
2019-01-05T10:11:56.132Z,80.10
2019-01-05T10:14:43.991Z,80.10
2019-01-05T10:27:51.790Z,79.80
2019-01-05T10:30:36.681Z,80.40
2019-01-05T10:42:40.285Z,80.50
2019-01-05T10:48:18.397Z,79.70
2019-01-05T10:53:06.391Z,80.50
2019-01-05T10:58:46.557Z,79.60
2019-01-05T11:17:05.663Z,79.50
2019-01-05T11:19:50.453Z,81.40
2019-01-05T11:23:33.744Z,80.20
2019-01-05T11:26:22.503Z,80.20
2019-01-05T11:29:13.820Z,79.90
2019-01-05T11:33:02.408Z,80.00
2019-01-05T11:38:58.480Z,79.90
2019-01-05T11:43:49.110Z,80.10
2019-01-05T11:47:39.609Z,80.20
2019-01-05T11:51:11.632Z,80.10
2019-01-05T11:54:09.314Z,80.10
2019-01-05T11:57:58.850Z,80.20
2019-01-05T12:00:47.697Z,79.90
2019-01-05T12:03:44.296Z,79.90
2019-01-05T12:06:44.900Z,80.00
2019-01-05T12:09:37.475Z,80.20
2019-01-05T12:12:22.530Z,80.00
2019-01-05T12:16:07.249Z,80.00
2019-01-05T12:19:55.762Z,80.10
2019-01-05T12:25:25.686Z,79.20
2019-01-05T12:28:13.274Z,79.90
2019-01-05T12:32:01.719Z,79.90
2019-01-05T12:36:47.407Z,80.30
2019-01-05T12:40:02.478Z,80.20
2019-01-05T12:47:51.108Z,79.70
2019-01-05T12:52:51.706Z,80.50
2019-01-05T12:56:39.189Z,80.20
2019-01-05T12:59:30.778Z,80.20
2019-01-05T13:02:21.878Z,80.30
2019-01-05T13:06:20.324Z,80.00
2019-01-05T13:13:25.297Z,80.10
2019-01-05T13:16:42.386Z,79.90
2019-01-05T13:19:43.525Z,79.70
2019-01-05T13:22:34.997Z,79.80
2019-01-05T13:25:33.551Z,79.80
2019-01-05T13:29:22.433Z,79.70
2019-01-05T13:34:15.046Z,79.70
2019-01-05T13:38:08.750Z,79.40
2019-01-05T13:43:04.502Z,79.50
2019-01-05T13:45:49.803Z,79.70
2019-01-05T13:48:36.676Z,79.60
2019-01-05T13:51:32.355Z,79.60
2019-01-05T13:54:07.811Z,79.30
2019-01-05T13:56:54.299Z,79.20
2019-01-05T14:03:05.418Z,78.70
2019-01-05T15:11:34.592Z,84.70
2019-01-05T15:14:08.403Z,86.00
2019-01-05T15:16:45.030Z,85.80
2019-01-05T15:19:48.940Z,86.20
2019-01-05T15:22:22.541Z,86.70
2019-01-05T15:26:59.945Z,86.90
2019-01-05T15:29:39.677Z,87.00
2019-01-05T15:32:15.221Z,87.30
2019-01-05T15:37:48.722Z,86.90
2019-01-05T15:41:19.940Z,87.50
2019-01-05T15:44:23.832Z,87.60
2019-01-05T15:47:00.278Z,87.50
2019-01-05T15:49:34.109Z,87.50
2019-01-05T15:52:08.554Z,87.30
2019-01-05T15:56:45.871Z,87.20
2019-01-05T15:59:28.705Z,87.00
2019-01-05T16:03:01.185Z,87.40
2019-01-05T16:05:34.837Z,87.00
2019-01-05T16:08:07.471Z,87.00
2019-01-05T16:10:50.062Z,86.90
2019-01-05T16:14:24.515Z,86.70
2019-01-05T16:17:59.042Z,86.80
2019-01-05T16:21:03.446Z,86.70
2019-01-05T16:23:41.815Z,86.70
2019-01-05T16:26:32.642Z,86.80
2019-01-05T16:29:06.188Z,87.00
2019-01-05T16:31:41.586Z,87.10
2019-01-05T16:34:15.428Z,87.20
2019-01-05T16:36:49.186Z,87.40
2019-01-05T16:39:24.695Z,88.50
2019-01-05T16:41:57.339Z,87.90
2019-01-05T16:44:33.941Z,88.30
2019-01-05T16:47:09.699Z,88.40
2019-01-05T16:50:13.717Z,88.50
2019-01-05T16:53:02.426Z,88.90
2019-01-05T16:58:38.822Z,88.70
2019-01-05T17:03:15.288Z,89.60
2019-01-05T17:05:47.979Z,89.80
2019-01-05T17:08:21.726Z,90.00
2019-01-05T17:10:55.500Z,90.20
2019-01-05T17:13:33.148Z,90.20
2019-01-05T17:17:06.262Z,90.20
2019-01-05T17:20:37.543Z,90.30
2019-01-05T17:23:29.486Z,90.40
2019-01-05T17:26:38.753Z,90.40
2019-01-05T17:30:11.117Z,90.40
2019-01-05T17:34:48.602Z,90.30
2019-01-05T17:37:27.122Z,90.30
2019-01-05T17:42:03.525Z,90.50
2019-01-05T17:44:36.922Z,90.30
2019-01-05T17:47:13.474Z,90.30
2019-01-05T17:50:03.416Z,90.20
2019-01-05T17:52:43.104Z,90.30
2019-01-05T17:59:50.607Z,90.00
2019-01-05T18:02:41.365Z,90.30
2019-01-05T18:05:15.121Z,90.40
2019-01-05T18:07:48.758Z,90.50
2019-01-05T18:10:22.290Z,90.50
2019-01-05T18:13:06.918Z,90.60
2019-01-05T18:16:43.164Z,91.00
2019-01-05T18:19:16.874Z,90.80
2019-01-05T18:21:49.531Z,91.00
2019-01-05T18:27:27.026Z,90.70
2019-01-05T18:30:00.972Z,91.10
2019-01-05T18:32:49.599Z,91.10
2019-01-05T18:35:28.334Z,91.40
2019-01-05T18:38:01.913Z,91.40
2019-01-05T18:40:36.439Z,91.40
2019-01-05T18:43:12.031Z,91.50
2019-01-05T18:45:47.716Z,91.70
2019-01-05T18:48:24.423Z,91.80
2019-01-05T18:50:58.052Z,91.80
2019-01-05T18:53:31.742Z,92.00
2019-01-05T18:56:05.689Z,92.00
2019-01-05T18:58:44.358Z,91.90
2019-01-05T19:01:20.012Z,92.00
2019-01-05T19:04:52.216Z,92.10
2019-01-05T19:07:29.931Z,92.10
2019-01-05T19:10:06.822Z,92.20
2019-01-05T19:12:48.858Z,92.30
2019-01-05T19:15:29.901Z,92.30
2019-01-05T19:18:03.867Z,92.30
2019-01-05T19:20:39.784Z,92.30
2019-01-05T19:23:19.376Z,92.40
2019-01-05T19:25:54.116Z,92.30
2019-01-05T19:28:28.922Z,92.30
2019-01-05T19:31:02.844Z,92.30
2019-01-05T19:33:37.014Z,92.30
2019-01-05T19:37:08.413Z,92.30
2019-01-05T19:40:00.960Z,92.30
2019-01-05T19:44:38.178Z,92.30
2019-01-05T19:48:12.325Z,92.20
2019-01-05T19:51:46.967Z,92.20
2019-01-05T19:55:22.130Z,92.20
2019-01-05T19:57:55.879Z,92.10
2019-01-05T20:00:29.846Z,92.30
2019-01-05T20:03:07.547Z,92.20
2019-01-05T20:07:47.698Z,92.30
2019-01-05T20:10:21.590Z,92.30
2019-01-05T20:13:11.193Z,92.50
2019-01-05T20:15:45.029Z,92.30
2019-01-05T20:18:18.952Z,92.30
2019-01-05T20:21:09.605Z,92.40
2019-01-05T20:23:46.268Z,92.60
2019-01-05T20:26:25.980Z,92.60
2019-01-05T20:29:00.521Z,92.90
2019-01-05T20:33:40.082Z,92.90
2019-01-05T20:36:12.949Z,93.10
2019-01-05T20:38:49.568Z,93.10
2019-01-05T20:41:23.562Z,93.10
2019-01-05T20:48:52.861Z,92.80
2019-01-05T20:53:33.005Z,93.20
2019-01-05T20:56:23.737Z,93.20
2019-01-05T20:58:57.564Z,93.10
2019-01-05T21:01:31.200Z,93.20
2019-01-05T21:04:04.946Z,93.10
2019-01-05T21:06:40.505Z,93.10
2019-01-05T21:09:19.261Z,93.10
2019-01-05T21:11:51.945Z,93.10
2019-01-05T21:17:09.997Z,92.80
2019-01-05T21:19:51.778Z,93.20
2019-01-05T21:22:24.429Z,93.20
2019-01-05T21:24:58.458Z,93.40
2019-01-05T21:27:48.331Z,93.30
2019-01-05T21:31:19.797Z,93.20
2019-01-05T21:33:53.888Z,93.30
2019-01-05T21:36:27.320Z,93.20
2019-01-05T21:39:06.069Z,93.20
2019-01-05T21:41:40.568Z,93.20
2019-01-05T21:45:15.268Z,93.10
2019-01-05T21:47:53.767Z,93.10
2019-01-05T21:50:27.504Z,93.10
2019-01-05T21:53:06.265Z,93.10
2019-01-05T21:56:43.623Z,93.10
2019-01-05T22:02:04.262Z,92.80
2019-01-05T22:05:36.921Z,93.10
2019-01-05T22:08:10.969Z,93.10
2019-01-05T22:12:51.194Z,93.00
2019-01-05T22:15:24.938Z,93.00
2019-01-05T22:18:00.493Z,93.00
2019-01-05T22:20:43.277Z,93.00
2019-01-05T22:24:16.869Z,92.90
2019-01-05T22:26:58.604Z,93.00
2019-01-05T22:29:36.140Z,93.50
2019-01-05T22:32:16.817Z,93.20
2019-01-05T22:35:05.592Z,93.20
2019-01-05T22:37:38.260Z,93.30
2019-01-05T22:40:14.564Z,93.30
2019-01-05T22:42:48.169Z,93.70
2019-01-05T22:45:23.655Z,93.40
2019-01-05T22:50:04.958Z,93.60
2019-01-05T22:52:42.701Z,93.50
2019-01-05T22:57:19.925Z,93.70
2019-01-05T22:59:53.745Z,93.70
2019-01-05T23:03:30.110Z,93.80
2019-01-05T23:09:06.917Z,93.60
2019-01-05T23:11:45.570Z,94.00
2019-01-05T23:14:19.375Z,94.00
2019-01-05T23:16:53.196Z,94.00
2019-01-05T23:19:30.705Z,94.00
2019-01-05T23:22:03.320Z,94.10
2019-01-05T23:24:45.813Z,94.20
2019-01-05T23:28:17.964Z,94.10
2019-01-05T23:30:52.474Z,94.10
2019-01-05T23:33:29.029Z,94.10
2019-01-05T23:36:10.595Z,94.10
2019-01-05T23:38:49.993Z,94.10
2019-01-05T23:41:18.100Z,94.10
2019-01-05T23:49:33.138Z,93.80
2019-01-05T23:53:10.655Z,94.10
2019-01-05T23:57:46.883Z,94.10
